createdAt,value
2023-05-04T00:01:10.924Z,7.70
2023-05-04T00:03:38.959Z,7.60
2023-05-04T00:06:06.849Z,7.50
2023-05-04T00:08:34.634Z,7.40
2023-05-04T00:11:02.381Z,7.40
2023-05-04T00:13:30.142Z,7.30
2023-05-04T00:15:57.931Z,7.20
2023-05-04T00:18:27.051Z,7.10
2023-05-04T00:20:54.834Z,7.00
2023-05-04T00:23:22.642Z,6.90
2023-05-04T00:25:50.428Z,6.90
2023-05-04T00:28:18.217Z,6.90
2023-05-04T00:30:46.386Z,6.80
2023-05-04T00:33:14.185Z,6.70
2023-05-04T00:35:43.272Z,6.70
2023-05-04T00:38:11.012Z,6.60
2023-05-04T00:40:38.790Z,6.60
2023-05-04T00:43:06.656Z,6.60
2023-05-04T00:45:34.623Z,6.60
2023-05-04T00:48:02.648Z,6.60
2023-05-04T00:50:30.563Z,6.50
2023-05-04T00:53:02.925Z,6.50
2023-05-04T00:55:30.800Z,6.60
2023-05-04T00:57:58.754Z,6.60
2023-05-04T01:00:27.166Z,6.60
2023-05-04T01:02:54.979Z,6.60
2023-05-04T01:05:22.931Z,6.60
2023-05-04T01:07:59.563Z,6.50
2023-05-04T01:10:35.393Z,6.50
2023-05-04T01:13:08.397Z,6.50
2023-05-04T01:15:37.380Z,6.40
2023-05-04T01:18:05.270Z,6.40
2023-05-04T01:20:33.545Z,6.30
2023-05-04T01:23:03.137Z,6.30
2023-05-04T01:25:35.152Z,6.20
2023-05-04T01:28:08.929Z,6.20
2023-05-04T01:30:40.067Z,6.10
2023-05-04T01:33:08.765Z,6.10
2023-05-04T01:35:37.145Z,6.00
2023-05-04T01:38:06.511Z,6.00
2023-05-04T01:40:34.260Z,6.10
2023-05-04T01:43:02.027Z,6.10
2023-05-04T01:45:29.862Z,6.10
2023-05-04T01:47:57.632Z,6.00
2023-05-04T01:50:25.583Z,6.00
2023-05-04T01:52:53.314Z,6.00
2023-05-04T01:55:22.402Z,5.90
2023-05-04T01:57:50.165Z,5.80
2023-05-04T02:00:18.224Z,5.80
2023-05-04T02:02:46.452Z,5.80
2023-05-04T02:05:14.246Z,5.80
2023-05-04T02:07:42.034Z,5.80
2023-05-04T02:10:10.702Z,5.80
2023-05-04T02:12:39.915Z,5.90
2023-05-04T02:15:08.777Z,5.90
2023-05-04T02:17:36.647Z,6.00
2023-05-04T02:20:05.636Z,6.00
2023-05-04T02:22:33.600Z,6.00
2023-05-04T02:25:01.350Z,6.00
2023-05-04T02:27:29.149Z,6.00
2023-05-04T02:29:58.920Z,6.00
2023-05-04T02:32:27.081Z,5.90
2023-05-04T02:34:54.983Z,5.80
2023-05-04T02:37:22.832Z,5.80
2023-05-04T02:39:50.562Z,5.70
2023-05-04T02:42:18.592Z,5.70
2023-05-04T02:44:46.456Z,5.70
2023-05-04T02:47:15.591Z,5.70
2023-05-04T02:49:43.440Z,5.70
2023-05-04T02:52:11.228Z,5.60
2023-05-04T02:54:39.346Z,5.50
2023-05-04T02:57:07.224Z,5.50
2023-05-04T02:59:35.007Z,5.50
2023-05-04T03:02:02.754Z,5.40
2023-05-04T03:04:31.910Z,5.40
2023-05-04T03:06:59.721Z,5.50
2023-05-04T03:09:27.507Z,5.50
2023-05-04T03:11:55.622Z,5.40
2023-05-04T03:14:23.411Z,5.50
2023-05-04T03:16:51.238Z,5.50
2023-05-04T03:19:20.758Z,5.60
2023-05-04T03:21:50.510Z,5.60
2023-05-04T03:24:19.322Z,5.60
2023-05-04T03:26:47.149Z,5.60
2023-05-04T03:29:15.007Z,5.60
2023-05-04T03:31:42.800Z,5.60
2023-05-04T03:34:12.559Z,5.60
2023-05-04T03:36:40.382Z,5.60
2023-05-04T03:39:09.474Z,5.50
2023-05-04T03:41:37.266Z,5.60
2023-05-04T03:44:05.122Z,5.50
2023-05-04T03:46:32.904Z,5.50
2023-05-04T03:49:00.719Z,5.40
2023-05-04T03:51:28.551Z,5.30
2023-05-04T03:53:56.326Z,5.30
2023-05-04T03:56:25.657Z,5.20
2023-05-04T03:58:53.417Z,5.20
2023-05-04T04:01:21.413Z,5.20
2023-05-04T04:03:49.364Z,5.20
2023-05-04T04:06:17.301Z,5.20
2023-05-04T04:08:45.055Z,5.30
2023-05-04T04:11:12.821Z,5.30
2023-05-04T04:13:41.954Z,5.40
2023-05-04T04:16:09.778Z,5.40
2023-05-04T04:18:37.546Z,5.50
2023-05-04T04:21:05.536Z,5.60
2023-05-04T04:23:33.307Z,5.70
2023-05-04T04:26:01.664Z,5.70
2023-05-04T04:28:29.472Z,5.80
2023-05-04T04:30:59.491Z,5.80
2023-05-04T04:33:27.343Z,5.80
2023-05-04T04:35:55.109Z,5.90
2023-05-04T04:38:22.879Z,5.90
2023-05-04T04:40:50.678Z,5.90
2023-05-04T04:43:18.389Z,5.90
2023-05-04T04:45:46.707Z,6.00
2023-05-04T04:48:16.693Z,6.10
2023-05-04T04:50:44.449Z,6.20
2023-05-04T04:53:12.184Z,6.20
2023-05-04T04:55:39.964Z,6.30
2023-05-04T04:58:08.725Z,6.40
2023-05-04T05:00:36.775Z,6.40
2023-05-04T05:03:04.781Z,6.50
2023-05-04T05:05:34.087Z,6.60
2023-05-04T05:08:02.290Z,6.70
2023-05-04T05:10:30.633Z,6.80
2023-05-04T05:12:58.445Z,6.90
2023-05-04T05:15:26.278Z,7.10
2023-05-04T05:17:54.130Z,7.20
2023-05-04T05:20:23.417Z,7.30
2023-05-04T05:22:52.565Z,7.40
2023-05-04T05:25:20.574Z,7.50
2023-05-04T05:27:48.470Z,7.60
2023-05-04T05:30:16.725Z,7.80
2023-05-04T05:32:45.208Z,7.90
2023-05-04T05:35:14.362Z,8.10
2023-05-04T05:37:42.232Z,8.20
2023-05-04T05:40:12.262Z,8.30
2023-05-04T05:42:40.108Z,8.50
2023-05-04T05:45:09.197Z,8.60
2023-05-04T05:47:37.450Z,8.70
2023-05-04T05:50:07.483Z,8.90
2023-05-04T05:52:35.481Z,9.00
2023-05-04T05:55:03.444Z,9.10
2023-05-04T05:57:32.771Z,9.20
2023-05-04T06:00:00.820Z,9.40
2023-05-04T06:02:28.689Z,9.50
2023-05-04T06:04:56.638Z,9.60
2023-05-04T06:07:24.555Z,9.70
2023-05-04T06:09:52.477Z,9.90
2023-05-04T06:12:20.519Z,10.00
2023-05-04T06:14:49.610Z,10.20
2023-05-04T06:17:18.566Z,10.30
2023-05-04T06:19:49.518Z,10.40
2023-05-04T06:22:18.725Z,10.50
2023-05-04T06:24:46.511Z,10.60
2023-05-04T06:27:14.317Z,10.80
2023-05-04T06:29:42.203Z,10.90
2023-05-04T06:32:11.659Z,10.90
2023-05-04T06:34:39.471Z,11.00
2023-05-04T06:37:07.217Z,11.10
2023-05-04T06:39:34.968Z,11.20
2023-05-04T06:42:03.290Z,11.30
2023-05-04T06:44:31.035Z,11.50
2023-05-04T06:46:58.795Z,11.60
2023-05-04T06:49:27.852Z,11.70
2023-05-04T06:51:56.207Z,11.90
2023-05-04T06:54:23.975Z,12.00
2023-05-04T06:56:52.346Z,12.20
2023-05-04T06:59:20.621Z,12.30
2023-05-04T07:01:48.515Z,12.50
2023-05-04T07:04:17.029Z,12.60
2023-05-04T07:06:46.543Z,12.70
2023-05-04T07:09:14.271Z,12.80
2023-05-04T07:11:42.063Z,12.90
2023-05-04T07:14:10.526Z,13.10
2023-05-04T07:16:38.819Z,13.20
2023-05-04T07:19:06.902Z,13.30
2023-05-04T07:21:34.641Z,13.40
2023-05-04T07:24:04.290Z,13.50
2023-05-04T07:26:32.091Z,13.60
2023-05-04T07:28:59.834Z,13.70
2023-05-04T07:31:29.493Z,13.70
2023-05-04T07:33:58.119Z,13.80
2023-05-04T07:36:27.605Z,13.80
2023-05-04T07:38:55.561Z,13.90
2023-05-04T07:41:24.675Z,14.00
2023-05-04T07:43:52.585Z,14.20
2023-05-04T07:46:20.611Z,14.30
2023-05-04T07:48:49.210Z,14.30
2023-05-04T07:51:17.166Z,14.40
2023-05-04T07:53:44.923Z,14.50
2023-05-04T07:56:13.744Z,14.50
2023-05-04T07:58:42.916Z,14.70
2023-05-04T08:01:10.813Z,14.80
2023-05-04T08:03:38.609Z,15.10
2023-05-04T08:06:06.501Z,15.10
2023-05-04T08:08:34.327Z,15.20
2023-05-04T08:11:15.929Z,15.20
2023-05-04T08:13:48.246Z,15.30
2023-05-04T08:16:16.064Z,15.40
2023-05-04T08:18:44.360Z,15.50
2023-05-04T08:21:12.130Z,15.60
2023-05-04T08:23:39.883Z,15.80
2023-05-04T08:26:07.675Z,16.00
2023-05-04T08:28:37.632Z,16.20
2023-05-04T08:31:07.657Z,16.40
2023-05-04T08:33:35.455Z,16.50
2023-05-04T08:36:04.005Z,16.60
2023-05-04T08:38:32.025Z,16.80
2023-05-04T08:41:03.028Z,16.60
2023-05-04T08:43:31.029Z,16.50
2023-05-04T08:45:58.912Z,16.60
2023-05-04T08:48:28.169Z,16.80
2023-05-04T08:50:56.392Z,16.90
2023-05-04T08:53:24.776Z,17.00
2023-05-04T08:55:55.786Z,17.10
2023-05-04T08:58:24.941Z,17.20
2023-05-04T09:00:53.592Z,17.30
2023-05-04T09:03:22.016Z,17.30
2023-05-04T09:05:52.487Z,17.40
2023-05-04T09:08:20.923Z,17.50
2023-05-04T09:10:48.740Z,17.70
2023-05-04T09:13:16.893Z,17.70
2023-05-04T09:15:55.070Z,17.60
2023-05-04T09:18:23.347Z,17.70
2023-05-04T09:20:52.499Z,17.80
2023-05-04T09:23:22.217Z,18.00
2023-05-04T09:25:51.028Z,18.10
2023-05-04T09:28:20.260Z,18.20
2023-05-04T09:30:48.887Z,18.40
2023-05-04T09:33:16.965Z,18.50
2023-05-04T09:35:45.346Z,18.60
2023-05-04T09:38:26.581Z,18.60
2023-05-04T09:40:55.878Z,18.70
2023-05-04T09:43:24.310Z,18.80
2023-05-04T09:45:52.281Z,18.90
2023-05-04T09:48:25.342Z,19.00
2023-05-04T09:50:54.400Z,19.00
2023-05-04T09:53:25.107Z,19.00
2023-05-04T09:56:05.756Z,18.90
2023-05-04T09:58:35.619Z,19.00
2023-05-04T10:01:03.431Z,19.10
2023-05-04T10:03:31.589Z,19.20
2023-05-04T10:06:00.407Z,19.40
2023-05-04T10:08:29.860Z,19.70
2023-05-04T10:10:58.519Z,19.80
2023-05-04T10:13:26.771Z,19.90
2023-05-04T10:16:08.207Z,19.90
2023-05-04T10:18:51.690Z,20.00
2023-05-04T10:21:29.545Z,20.20
2023-05-04T10:24:15.519Z,20.10
2023-05-04T10:27:03.070Z,20.00
2023-05-04T10:29:33.328Z,20.00
2023-05-04T10:32:01.531Z,20.00
2023-05-04T10:34:30.854Z,20.00
2023-05-04T10:36:59.706Z,20.20
2023-05-04T10:39:30.497Z,20.30
2023-05-04T10:42:00.049Z,20.50
2023-05-04T10:44:28.605Z,20.40
2023-05-04T10:47:01.084Z,20.30
2023-05-04T10:49:29.294Z,20.40
2023-05-04T10:52:11.385Z,20.60
2023-05-04T10:54:41.942Z,20.70
2023-05-04T10:57:11.262Z,20.60
2023-05-04T10:59:39.975Z,20.60
2023-05-04T11:02:08.640Z,20.70
2023-05-04T11:04:37.737Z,20.80
2023-05-04T11:07:08.192Z,20.90
2023-05-04T11:09:44.255Z,21.10
2023-05-04T11:12:16.393Z,21.20
2023-05-04T11:14:44.229Z,21.30
2023-05-04T11:19:52.752Z,21.30
2023-05-04T11:22:20.787Z,21.30
2023-05-04T11:24:50.052Z,21.20
2023-05-04T11:27:28.487Z,21.10
2023-05-04T11:29:57.380Z,21.20
2023-05-04T11:32:35.022Z,21.20
2023-05-04T11:35:03.985Z,21.20
2023-05-04T11:37:38.236Z,21.20
2023-05-04T11:40:14.502Z,21.40
2023-05-04T11:42:43.501Z,21.40
2023-05-04T11:45:15.225Z,21.40
2023-05-04T11:47:44.159Z,21.40
2023-05-04T11:50:14.322Z,21.50
2023-05-04T11:52:43.229Z,21.60
2023-05-04T11:55:14.295Z,21.60
2023-05-04T11:57:42.065Z,21.60
2023-05-04T12:00:11.255Z,21.70
2023-05-04T12:02:39.296Z,21.70
2023-05-04T12:05:14.482Z,21.70
2023-05-04T12:07:42.423Z,21.70
2023-05-04T12:10:11.901Z,21.70
2023-05-04T12:12:39.785Z,21.60
2023-05-04T12:15:08.848Z,21.60
2023-05-04T12:17:43.035Z,21.70
2023-05-04T12:20:11.593Z,21.80
2023-05-04T12:22:39.480Z,21.80
2023-05-04T12:25:09.280Z,21.70
2023-05-04T12:27:41.643Z,21.90
2023-05-04T12:30:10.948Z,21.90
2023-05-04T12:32:39.028Z,21.90
2023-05-04T12:35:07.947Z,22.00
2023-05-04T12:37:35.907Z,22.00
2023-05-04T12:40:07.116Z,22.10
2023-05-04T12:42:42.175Z,22.10
2023-05-04T12:45:11.291Z,22.10
2023-05-04T12:47:39.099Z,22.20
2023-05-04T12:50:07.710Z,22.30
2023-05-04T12:52:35.509Z,22.40
2023-05-04T12:55:03.267Z,22.60
2023-05-04T12:57:31.051Z,22.70
2023-05-04T13:00:00.633Z,22.70
2023-05-04T13:02:28.506Z,22.70
2023-05-04T13:04:56.516Z,22.70
2023-05-04T13:07:24.507Z,22.60
2023-05-04T13:09:52.301Z,22.40
2023-05-04T13:12:20.049Z,22.30
2023-05-04T13:14:47.813Z,22.30
2023-05-04T13:17:18.146Z,22.20
2023-05-04T13:19:45.868Z,22.30
2023-05-04T13:22:13.634Z,22.40
2023-05-04T13:24:41.661Z,22.40
2023-05-04T13:27:09.793Z,22.40
2023-05-04T13:29:37.842Z,22.40
2023-05-04T13:32:06.431Z,22.40
2023-05-04T13:34:35.677Z,22.50
2023-05-04T13:37:03.564Z,22.30
2023-05-04T13:39:31.345Z,22.10
2023-05-04T13:41:59.085Z,21.90
2023-05-04T13:44:26.859Z,22.10
2023-05-04T13:46:54.680Z,22.10
2023-05-04T13:49:22.478Z,22.10
2023-05-04T13:51:51.681Z,22.10
2023-05-04T13:54:19.411Z,22.20
2023-05-04T13:56:48.402Z,22.10
2023-05-04T13:59:16.239Z,22.10
2023-05-04T14:01:44.050Z,22.10
2023-05-04T14:04:11.839Z,22.00
2023-05-04T14:06:39.601Z,22.10
2023-05-04T14:09:09.519Z,22.10
2023-05-04T14:11:37.359Z,22.00
2023-05-04T14:14:05.102Z,21.90
2023-05-04T14:16:32.961Z,21.70
2023-05-04T14:19:00.775Z,21.70
2023-05-04T14:21:28.895Z,21.70
2023-05-04T14:23:56.677Z,21.70
2023-05-04T14:26:26.009Z,21.70
2023-05-04T14:28:53.780Z,21.70
2023-05-04T14:31:21.555Z,21.70
2023-05-04T14:33:49.355Z,21.80
2023-05-04T14:36:17.154Z,21.80
2023-05-04T14:38:47.923Z,21.80
2023-05-04T14:41:15.687Z,21.80
2023-05-04T14:43:44.747Z,21.70
2023-05-04T14:46:13.485Z,21.70
2023-05-04T14:48:41.341Z,21.70
2023-05-04T14:51:09.245Z,21.70
2023-05-04T14:53:39.278Z,21.80
2023-05-04T14:56:07.749Z,21.80
2023-05-04T14:58:36.227Z,21.80
2023-05-04T15:01:05.922Z,21.80
2023-05-04T15:03:33.772Z,21.80
2023-05-04T15:06:01.599Z,21.80
2023-05-04T15:08:29.345Z,21.60
2023-05-04T15:10:58.869Z,21.40
2023-05-04T15:13:26.713Z,21.30
2023-05-04T15:15:54.570Z,21.20
2023-05-04T15:18:24.043Z,21.10
2023-05-04T15:20:51.877Z,21.20
2023-05-04T15:23:19.600Z,21.40
2023-05-04T15:25:47.343Z,21.40
2023-05-04T15:28:15.597Z,21.50
2023-05-04T15:30:43.635Z,21.50
2023-05-04T15:33:11.577Z,21.40
2023-05-04T15:35:41.209Z,21.30
2023-05-04T15:38:08.977Z,21.20
2023-05-04T15:40:36.902Z,21.20
2023-05-04T15:43:04.657Z,21.10
2023-05-04T15:45:32.470Z,21.20
2023-05-04T15:48:00.371Z,21.10
2023-05-04T15:50:28.250Z,21.00
2023-05-04T15:52:57.340Z,20.80
2023-05-04T15:55:26.537Z,20.70
2023-05-04T15:57:54.700Z,20.60
2023-05-04T16:00:23.403Z,20.50
2023-05-04T16:02:51.683Z,20.40
2023-05-04T16:05:20.214Z,20.30
2023-05-04T16:07:48.121Z,20.20
2023-05-04T16:10:17.405Z,20.20
2023-05-04T16:12:45.409Z,20.20
2023-05-04T16:15:13.533Z,20.20
2023-05-04T16:17:41.713Z,20.20
2023-05-04T16:20:10.690Z,20.10
2023-05-04T16:22:38.798Z,20.00
2023-05-04T16:25:08.913Z,20.00
2023-05-04T16:27:40.503Z,20.00
2023-05-04T16:30:09.711Z,20.00
2023-05-04T16:32:37.915Z,19.90
2023-05-04T16:35:06.491Z,19.90
2023-05-04T16:37:36.869Z,19.80
2023-05-04T16:40:15.278Z,19.70
2023-05-04T16:42:45.340Z,19.70
2023-05-04T16:45:14.598Z,19.70
2023-05-04T16:47:43.221Z,19.70
2023-05-04T16:50:12.137Z,19.60
2023-05-04T16:52:40.240Z,19.60
2023-05-04T16:55:11.881Z,19.60
2023-05-04T16:57:40.109Z,19.50
2023-05-04T17:00:10.805Z,19.60
2023-05-04T17:02:38.774Z,19.50
2023-05-04T17:05:09.997Z,19.40
2023-05-04T17:07:39.440Z,19.40
2023-05-04T17:10:08.559Z,19.30
2023-05-04T17:12:36.782Z,19.20
2023-05-04T17:15:04.999Z,19.20
2023-05-04T17:17:34.110Z,19.20
2023-05-04T17:20:02.366Z,19.10
2023-05-04T17:22:30.241Z,19.00
2023-05-04T17:24:58.099Z,18.80
2023-05-04T17:27:25.866Z,18.70
2023-05-04T17:29:53.625Z,18.60
2023-05-04T17:32:21.482Z,18.50
2023-05-04T17:34:50.795Z,18.50
2023-05-04T17:37:18.606Z,18.40
2023-05-04T17:39:47.049Z,18.40
2023-05-04T17:42:15.763Z,18.30
2023-05-04T17:44:43.534Z,18.20
2023-05-04T17:47:11.398Z,18.20
2023-05-04T17:49:39.147Z,18.10
2023-05-04T17:52:08.714Z,18.00
2023-05-04T17:54:36.458Z,18.00
2023-05-04T17:57:04.206Z,17.90
2023-05-04T17:59:32.341Z,17.80
2023-05-04T18:02:00.233Z,17.70
2023-05-04T18:04:31.154Z,17.70
2023-05-04T18:06:59.130Z,17.60
2023-05-04T18:09:28.273Z,17.60
2023-05-04T18:11:56.872Z,17.50
2023-05-04T18:14:24.640Z,17.50
2023-05-04T18:16:52.410Z,17.50
2023-05-04T18:19:24.509Z,17.50
2023-05-04T18:21:52.436Z,17.40
2023-05-04T18:24:20.214Z,17.30
2023-05-04T18:26:49.277Z,17.10
2023-05-04T18:29:19.475Z,17.00
2023-05-04T18:31:47.662Z,16.90
2023-05-04T18:34:15.459Z,16.90
2023-05-04T18:36:43.202Z,16.90
2023-05-04T18:39:10.976Z,16.90
2023-05-04T18:41:38.892Z,16.90
2023-05-04T18:44:09.860Z,16.90
2023-05-04T18:46:37.710Z,16.90
2023-05-04T18:49:05.479Z,16.90
2023-05-04T18:51:33.248Z,16.90
2023-05-04T18:54:01.080Z,16.90
2023-05-04T18:56:28.833Z,16.80
2023-05-04T18:58:56.558Z,16.80
2023-05-04T19:01:26.369Z,16.70
2023-05-04T19:03:54.181Z,16.70
2023-05-04T19:06:21.977Z,16.70
2023-05-04T19:08:49.784Z,16.60
2023-05-04T19:11:17.584Z,16.60
2023-05-04T19:13:45.330Z,16.60
2023-05-04T19:16:13.215Z,16.60
2023-05-04T19:18:43.128Z,16.50
2023-05-04T19:21:10.904Z,16.60
2023-05-04T19:23:38.706Z,16.50
2023-05-04T19:26:06.647Z,16.50
2023-05-04T19:28:34.474Z,16.50
2023-05-04T19:31:02.407Z,16.40
2023-05-04T19:33:44.367Z,16.40
2023-05-04T19:36:17.180Z,16.40
2023-05-04T19:38:45.315Z,16.30
2023-05-04T19:41:13.683Z,16.20
2023-05-04T19:43:42.518Z,16.10
2023-05-04T19:46:10.332Z,15.90
2023-05-04T19:48:39.004Z,15.80
2023-05-04T19:51:06.748Z,15.40
2023-05-04T19:53:35.861Z,15.00
2023-05-04T19:56:03.601Z,14.50
2023-05-04T19:58:31.860Z,14.10
2023-05-04T20:00:59.630Z,13.80
2023-05-04T20:03:27.497Z,13.60
2023-05-04T20:05:55.459Z,13.60
2023-05-04T20:08:23.210Z,13.60
2023-05-04T20:10:52.328Z,13.60
2023-05-04T20:13:20.136Z,13.70
2023-05-04T20:15:47.911Z,13.70
2023-05-04T20:18:16.705Z,13.80
2023-05-04T20:20:44.457Z,13.80
2023-05-04T20:23:12.284Z,13.90
2023-05-04T20:25:40.061Z,13.80
2023-05-04T20:28:09.189Z,13.80
2023-05-04T20:30:36.949Z,13.70
2023-05-04T20:33:04.917Z,13.60
2023-05-04T20:35:32.788Z,13.50
2023-05-04T20:38:00.539Z,13.20
2023-05-04T20:40:28.874Z,13.10
2023-05-04T20:42:56.712Z,12.90
2023-05-04T20:45:25.996Z,12.90
2023-05-04T20:47:53.772Z,12.80
2023-05-04T20:50:21.531Z,12.80
2023-05-04T20:52:49.554Z,12.60
2023-05-04T20:55:17.695Z,12.40
2023-05-04T20:57:45.466Z,12.30
2023-05-04T21:00:14.967Z,12.10
2023-05-04T21:02:44.144Z,11.90
2023-05-04T21:05:12.113Z,11.70
2023-05-04T21:07:39.863Z,11.40
2023-05-04T21:10:09.126Z,11.20
2023-05-04T21:12:37.082Z,10.90
2023-05-04T21:15:05.613Z,10.60
2023-05-04T21:17:33.453Z,10.50
2023-05-04T21:20:03.052Z,10.30
2023-05-04T21:22:30.821Z,10.20
2023-05-04T21:24:58.621Z,10.10
2023-05-04T21:27:26.387Z,9.90
2023-05-04T21:29:54.154Z,9.80
2023-05-04T21:32:21.928Z,9.70
2023-05-04T21:34:53.317Z,9.80
2023-05-04T21:37:22.382Z,9.70
2023-05-04T21:39:55.595Z,9.70
2023-05-04T21:42:23.341Z,9.80
2023-05-04T21:44:55.017Z,9.80
2023-05-04T21:47:22.859Z,9.90
2023-05-04T21:49:51.346Z,10.00
2023-05-04T21:52:19.097Z,10.10
2023-05-04T21:54:48.543Z,10.20
2023-05-04T21:57:16.476Z,10.20
2023-05-04T21:59:44.265Z,10.10
2023-05-04T22:02:12.002Z,10.00
2023-05-04T22:04:43.191Z,10.00
2023-05-04T22:07:11.087Z,9.90
2023-05-04T22:09:38.888Z,10.00
2023-05-04T22:12:08.468Z,10.00
2023-05-04T22:14:36.206Z,10.00
2023-05-04T22:17:05.040Z,10.10
2023-05-04T22:19:33.244Z,10.10
2023-05-04T22:22:01.042Z,10.10
2023-05-04T22:24:28.850Z,10.00
2023-05-04T22:26:56.656Z,10.00
2023-05-04T22:29:25.813Z,9.90
2023-05-04T22:31:53.577Z,9.90
2023-05-04T22:34:21.372Z,9.80
2023-05-04T22:36:49.387Z,9.60
2023-05-04T22:39:17.344Z,9.40
2023-05-04T22:41:45.099Z,9.20
2023-05-04T22:44:12.880Z,9.00
2023-05-04T22:46:42.094Z,8.80
2023-05-04T22:49:09.974Z,8.80
2023-05-04T22:51:37.942Z,8.80
2023-05-04T22:54:05.842Z,8.90
2023-05-04T22:56:33.970Z,8.90
2023-05-04T22:59:01.805Z,9.10
2023-05-04T23:01:29.955Z,9.20
2023-05-04T23:03:59.153Z,9.20
2023-05-04T23:06:28.300Z,9.20
2023-05-04T23:08:56.106Z,9.20
2023-05-04T23:11:23.894Z,9.10
2023-05-04T23:13:52.116Z,9.10
2023-05-04T23:16:19.962Z,9.00
2023-05-04T23:18:48.660Z,8.90
2023-05-04T23:21:17.743Z,8.80
2023-05-04T23:23:45.670Z,8.70
2023-05-04T23:26:13.428Z,8.60
2023-05-04T23:28:41.203Z,8.50
2023-05-04T23:31:08.981Z,8.50
2023-05-04T23:33:36.780Z,8.60
2023-05-04T23:36:04.697Z,8.60
2023-05-04T23:38:33.810Z,8.70
2023-05-04T23:41:03.275Z,8.90
2023-05-04T23:43:31.729Z,8.80
2023-05-04T23:46:02.693Z,8.80
2023-05-04T23:48:31.637Z,8.80
2023-05-04T23:51:04.421Z,8.70
2023-05-04T23:53:35.105Z,8.70
2023-05-04T23:56:04.751Z,8.60
2023-05-04T23:58:33.698Z,8.50
